Time;durP1;ratioP1;P1;durP2;ratioP2;P2;SDS_P1;SDS_P2;PMS_P1;PMS_P2;Temp;Humidity;BMP_temperature;BMP_pressure;BME280_temperature;BME280_humidity;BME280_pressure;Samples;Min_cycle;Max_cycle;Signal;HPM_P1;HPM_P2
2020/12/31 00:03:58;;;;;;;2.55;1.75;;;;;;;2.09;63.62;99092.03;10504076;28;20068;-66
2020/12/31 00:09:00;;;;;;;2.25;1.70;;;;;;;2.25;62.98;99084.88;10500829;28;20458;-65
2020/12/31 00:14:07;;;;;;;2.45;1.50;;;;;;;2.11;63.31;99095.44;10501977;28;20098;-64
2020/12/31 00:19:08;;;;;;;1.98;1.77;;;;;;;2.22;62.96;99096.19;10501931;28;20120;-64
2020/12/31 00:24:09;;;;;;;1.92;1.73;;;;;;;2.03;63.33;99094.66;10501679;28;20047;-66
2020/12/31 00:29:11;;;;;;;3.33;1.80;;;;;;;2.11;63.18;99097.19;10501123;28;20053;-65
2020/12/31 00:34:12;;;;;;;5.32;1.83;;;;;;;2.31;62.63;99100.38;10501982;28;20115;-64
2020/12/31 00:39:14;;;;;;;3.47;2.17;;;;;;;2.06;63.45;99097.22;10501557;28;20044;-64
2020/12/31 00:44:15;;;;;;;2.88;1.90;;;;;;;1.98;63.40;99086.94;10500859;28;20040;-65
2020/12/31 00:49:16;;;;;;;2.67;2.30;;;;;;;1.98;63.49;99099.91;10500559;28;20102;-65
2020/12/31 00:54:18;;;;;;;3.53;2.47;;;;;;;2.01;63.65;99099.03;10499262;28;20409;-65
2020/12/31 00:59:20;;;;;;;2.35;1.95;;;;;;;1.78;64.18;99107.06;10500384;28;20571;-65
2020/12/31 01:04:21;;;;;;;2.05;1.60;;;;;;;1.74;64.00;99111.44;10500155;28;20135;-65
2020/12/31 01:09:22;;;;;;;3.00;1.90;;;;;;;1.90;64.02;99109.50;10499940;28;20040;-64
2020/12/31 01:14:23;;;;;;;3.33;2.00;;;;;;;1.49;64.66;99121.19;10499492;28;20041;-65
2020/12/31 01:19:25;;;;;;;3.60;2.45;;;;;;;1.08;65.69;99123.28;10499642;28;20532;-65
2020/12/31 01:24:26;;;;;;;2.40;1.90;;;;;;;0.79;67.03;99129.53;10499393;28;20450;-65
2020/12/31 01:29:27;;;;;;;3.97;3.00;;;;;;;0.79;66.84;99136.44;10499435;28;20036;-64
2020/12/31 01:34:28;;;;;;;4.72;3.40;;;;;;;0.54;67.38;99136.59;10481286;28;20044;-64
2020/12/31 01:39:30;;;;;;;4.15;3.70;;;;;;;0.49;67.36;99135.78;10498642;28;20098;-64
2020/12/31 01:44:31;;;;;;;3.03;2.72;;;;;;;0.53;67.77;99140.03;10499014;28;20482;-65
2020/12/31 01:49:34;;;;;;;3.35;3.05;;;;;;;0.63;67.77;99138.28;10499102;28;20048;-65
2020/12/31 01:54:36;;;;;;;3.70;2.97;;;;;;;0.49;67.48;99139.22;10500166;28;20067;-64
2020/12/31 01:59:38;;;;;;;3.53;2.90;;;;;;;0.30;67.81;99153.09;10498453;28;20040;-65
2020/12/31 02:04:40;;;;;;;3.20;2.85;;;;;;;0.13;68.09;99139.38;10512888;22;20090;-68
2020/12/31 02:09:43;;;;;;;3.22;2.90;;;;;;;-0.13;68.30;99148.09;10499721;28;20093;-68
2020/12/31 02:14:52;;;;;;;3.15;2.80;;;;;;;-0.21;68.85;99146.41;10497781;28;20110;-69
2020/12/31 02:19:53;;;;;;;3.60;3.20;;;;;;;-0.38;69.05;99152.44;10501708;28;20068;-68
2020/12/31 02:24:55;;;;;;;2.70;2.35;;;;;;;-0.55;68.99;99159.34;10497326;28;20132;-71
2020/12/31 02:29:57;;;;;;;3.50;2.97;;;;;;;-0.44;69.49;99165.38;10498457;28;20068;-69
2020/12/31 02:34:58;;;;;;;3.65;2.50;;;;;;;-0.51;69.25;99169.69;10499012;28;20382;-69
2020/12/31 02:39:59;;;;;;;3.45;2.47;;;;;;;-0.65;69.05;99174.00;10498826;28;20486;-67
2020/12/31 02:45:00;;;;;;;2.75;2.22;;;;;;;-0.54;69.16;99164.50;10499214;28;20040;-69
2020/12/31 02:50:01;;;;;;;2.78;2.47;;;;;;;-0.80;69.47;99168.81;10499035;28;20094;-68
2020/12/31 02:55:03;;;;;;;3.50;2.20;;;;;;;-0.92;69.70;99174.00;10499765;28;20037;-68
2020/12/31 03:00:04;;;;;;;2.72;2.53;;;;;;;-0.88;69.98;99171.44;10506468;28;20036;-68
2020/12/31 03:05:05;;;;;;;2.40;2.20;;;;;;;-1.04;70.00;99174.84;10507463;28;20036;-69
2020/12/31 03:10:06;;;;;;;2.70;2.50;;;;;;;-1.05;70.23;99173.13;10505575;28;20041;-69
2020/12/31 03:15:12;;;;;;;3.53;2.67;;;;;;;-0.81;70.01;99169.69;10505047;28;20102;-69
2020/12/31 03:20:13;;;;;;;3.03;2.47;;;;;;;-0.94;69.84;99176.56;10505599;28;20090;-69
2020/12/31 03:25:14;;;;;;;3.30;2.10;;;;;;;-0.78;69.08;99167.13;10505982;28;20082;-68
2020/12/31 03:30:15;;;;;;;2.85;2.13;;;;;;;-0.86;69.25;99168.84;10504927;28;20113;-69
2020/12/31 03:35:17;;;;;;;3.03;2.03;;;;;;;-1.09;69.62;99166.25;10504847;28;20037;-68
2020/12/31 03:40:19;;;;;;;2.75;2.33;;;;;;;-1.11;69.55;99171.38;10504500;28;20044;-69
2020/12/31 03:45:20;;;;;;;3.25;2.85;;;;;;;-1.50;70.39;99174.75;10502676;28;20066;-69
2020/12/31 03:50:21;;;;;;;2.58;2.38;;;;;;;-1.51;70.90;99175.59;10504967;28;20461;-69
2020/12/31 03:55:23;;;;;;;2.58;2.38;;;;;;;-1.33;71.28;99172.19;10503711;28;20036;-68
2020/12/31 04:00:24;;;;;;;3.65;2.35;;;;;;;-1.25;70.29;99172.22;10503625;28;20102;-69
2020/12/31 04:05:25;;;;;;;2.92;2.53;;;;;;;-1.38;69.78;99161.88;10503605;28;20060;-68
2020/12/31 04:10:26;;;;;;;3.92;2.60;;;;;;;-1.40;70.11;99161.03;10502168;28;20076;-68
2020/12/31 04:15:27;;;;;;;3.42;3.13;;;;;;;-1.33;70.25;99167.03;10504114;28;20044;-68
2020/12/31 04:20:29;;;;;;;2.90;2.60;;;;;;;-1.21;69.69;99154.19;10503314;28;20071;-68
2020/12/31 04:25:30;;;;;;;3.67;2.92;;;;;;;-1.34;70.23;99157.59;10502160;28;20086;-67
2020/12/31 04:30:31;;;;;;;3.40;2.97;;;;;;;-1.60;71.03;99154.94;10503002;28;20410;-69
2020/12/31 04:35:32;;;;;;;3.92;2.65;;;;;;;-1.67;70.78;99160.97;10502519;28;20075;-68
2020/12/31 04:40:33;;;;;;;3.05;2.53;;;;;;;-1.71;70.79;99169.53;10500981;28;20037;-69
2020/12/31 04:45:37;;;;;;;2.67;2.47;;;;;;;-1.71;70.71;99162.66;10501276;28;20045;-69
2020/12/31 04:50:40;;;;;;;3.58;3.28;;;;;;;-1.62;71.06;99162.69;10500820;28;20505;-69
2020/12/31 04:55:44;;;;;;;3.55;3.15;;;;;;;-1.58;70.58;99164.44;10499435;28;20049;-69
2020/12/31 05:00:46;;;;;;;3.55;3.13;;;;;;;-1.72;70.87;99171.25;10499596;28;20067;-69
2020/12/31 05:05:50;;;;;;;3.20;2.92;;;;;;;-1.78;71.01;99178.94;10501261;28;20086;-69
2020/12/31 05:10:53;;;;;;;3.58;3.28;;;;;;;-1.56;70.78;99178.16;10500075;28;20123;-69
2020/12/31 05:15:54;;;;;;;3.92;3.50;;;;;;;-1.78;70.77;99179.78;10501208;28;20466;-69
2020/12/31 05:20:57;;;;;;;4.32;3.78;;;;;;;-1.92;71.56;99178.03;10501041;28;20510;-69
2020/12/31 05:25:59;;;;;;;4.18;3.78;;;;;;;-2.00;72.38;99182.28;10500128;28;20044;-68
2020/12/31 05:31:11;;;;;;;4.72;4.25;;;;;;;-1.94;72.74;99190.06;10499768;28;20048;-68
2020/12/31 05:36:26;;;;;;;5.25;4.30;;;;;;;-1.84;72.51;99202.13;10498772;28;20076;-69
2020/12/31 05:41:35;;;;;;;4.30;3.80;;;;;;;-1.82;72.27;99195.22;10499599;28;20402;-69
2020/12/31 05:46:38;;;;;;;5.35;4.10;;;;;;;-1.64;72.37;99204.75;10500730;28;20041;-69
2020/12/31 05:51:41;;;;;;;4.38;3.97;;;;;;;-1.61;71.63;99207.34;10497907;28;20068;-69
2020/12/31 05:56:44;;;;;;;4.47;4.07;;;;;;;-1.59;71.18;99211.69;10498898;28;20068;-69
2020/12/31 06:01:57;;;;;;;4.45;4.07;;;;;;;-1.69;70.70;99214.19;10499844;28;20397;-68
2020/12/31 06:07:00;;;;;;;4.55;4.15;;;;;;;-1.73;70.81;99218.47;10498969;28;20055;-67
2020/12/31 06:12:02;;;;;;;4.47;3.53;;;;;;;-1.74;70.39;99232.19;10498995;28;20044;-67
2020/12/31 06:17:05;;;;;;;4.05;3.67;;;;;;;-1.95;70.77;99234.66;10499739;28;20048;-67
2020/12/31 06:22:11;;;;;;;3.75;3.40;;;;;;;-2.05;70.80;99229.47;10499609;28;20098;-68
2020/12/31 06:27:19;;;;;;;4.15;3.72;;;;;;;-2.10;71.29;99244.03;10498794;28;20036;-68
2020/12/31 06:32:39;;;;;;;4.75;4.35;;;;;;;-2.07;71.35;99248.34;10504978;28;20048;-68
2020/12/31 06:37:40;;;;;;;4.65;4.25;;;;;;;-2.06;71.30;99258.66;10505687;28;20079;-68
2020/12/31 06:42:59;;;;;;;4.78;4.30;;;;;;;-2.07;71.42;99262.09;10508856;28;20445;-68
2020/12/31 06:48:01;;;;;;;4.95;4.55;;;;;;;-2.17;71.80;99268.03;10505615;28;20486;-67
2020/12/31 06:53:44;;;;;;;4.80;4.40;;;;;;;-2.16;71.97;99264.59;10507257;28;20083;-69
2020/12/31 06:58:45;;;;;;;5.35;4.85;;;;;;;-2.08;71.49;99259.47;10505895;28;20052;-69
2020/12/31 07:03:47;;;;;;;5.10;4.30;;;;;;;-2.24;71.95;99255.09;10506950;28;20094;-69
2020/12/31 07:08:50;;;;;;;7.00;5.00;;;;;;;-2.28;71.77;99255.06;10504649;28;20053;-69
2020/12/31 07:13:52;;;;;;;6.63;6.03;;;;;;;-2.09;71.75;99261.19;10506500;28;20048;-69
2020/12/31 07:18:55;;;;;;;6.18;5.57;;;;;;;-2.18;71.73;99260.28;10504058;28;20051;-69
2020/12/31 07:23:56;;;;;;;7.70;6.53;;;;;;;-2.14;72.08;99268.03;10504046;28;20544;-69
2020/12/31 07:29:01;;;;;;;7.18;6.25;;;;;;;-2.03;71.97;99260.41;10504918;28;20041;-69
2020/12/31 07:34:22;;;;;;;7.45;6.65;;;;;;;-2.18;72.08;99266.28;10503687;28;20127;-69
2020/12/31 07:39:24;;;;;;;6.78;6.13;;;;;;;-1.96;72.08;99263.84;10501960;28;20144;-69
2020/12/31 07:44:25;;;;;;;6.57;6.00;;;;;;;-1.81;71.85;99261.38;10503913;28;20046;-68
2020/12/31 07:49:26;;;;;;;6.88;6.13;;;;;;;-1.94;72.29;99259.59;10503033;28;20082;-68
2020/12/31 07:54:27;;;;;;;6.35;5.85;;;;;;;-1.91;72.58;99257.88;10504464;28;20072;-69
2020/12/31 07:59:29;;;;;;;7.93;7.22;;;;;;;-1.80;72.26;99251.06;10514408;28;20059;-68
2020/12/31 08:04:30;;;;;;;7.25;6.55;;;;;;;-1.63;71.70;99261.47;10503384;28;20048;-65
2020/12/31 08:09:31;;;;;;;8.50;7.63;;;;;;;-1.62;72.36;99260.63;10506592;28;20048;-65
2020/12/31 08:14:45;;;;;;;9.13;8.32;;;;;;;-1.53;72.13;99265.81;10507316;28;20115;-65
2020/12/31 08:19:47;;;;;;;9.80;8.85;;;;;;;-1.44;72.44;99266.72;10506086;28;20045;-65
2020/12/31 08:24:55;;;;;;;12.27;11.27;;;;;;;-1.23;72.65;99255.63;10507679;28;20140;-65
2020/12/31 08:29:57;;;;;;;14.50;10.90;;;;;;;-1.06;71.84;99253.94;10505754;28;20127;-65
2020/12/31 08:34:58;;;;;;;14.10;12.80;;;;;;;-0.93;71.85;99247.97;10507799;28;20115;-65
2020/12/31 08:39:59;;;;;;;10.98;10.07;;;;;;;-0.58;70.93;99255.72;10503471;28;20178;-65
2020/12/31 08:45:00;;;;;;;10.73;9.73;;;;;;;-0.53;70.55;99250.59;10501304;28;20482;-65
2020/12/31 08:50:02;;;;;;;13.23;11.18;;;;;;;-0.42;70.38;99260.91;10502385;28;20131;-65
2020/12/31 08:55:08;;;;;;;12.98;11.88;;;;;;;-0.08;69.56;99254.84;10501438;28;20048;-65
2020/12/31 09:00:09;;;;;;;12.93;11.73;;;;;;;0.04;69.56;99255.69;10503338;28;20064;-65
2020/12/31 09:05:17;;;;;;;12.82;11.48;;;;;;;0.12;69.09;99257.38;10503509;28;20040;-65
2020/12/31 09:10:18;;;;;;;12.38;11.32;;;;;;;0.26;69.07;99254.75;10502604;28;20117;-66
2020/12/31 09:15:20;;;;;;;12.88;11.77;;;;;;;0.31;69.21;99247.00;10500825;28;20040;-65
2020/12/31 09:20:27;;;;;;;13.50;12.30;;;;;;;0.63;68.43;99240.00;10501371;28;20111;-65
2020/12/31 09:25:28;;;;;;;16.05;14.65;;;;;;;0.91;67.93;99238.13;10500338;28;20455;-65
2020/12/31 09:30:30;;;;;;;16.70;15.10;;;;;;;1.04;67.97;99238.91;10500578;28;20132;-65
2020/12/31 09:35:32;;;;;;;17.10;15.60;;;;;;;1.29;67.72;99236.19;10500108;28;20071;-65
2020/12/31 09:40:33;;;;;;;16.90;15.50;;;;;;;1.47;66.89;99230.84;10499855;28;20181;-64
2020/12/31 09:45:35;;;;;;;15.95;14.55;;;;;;;1.59;66.88;99222.97;10498930;28;20032;-65
2020/12/31 09:50:36;;;;;;;17.00;15.40;;;;;;;1.58;67.32;99220.41;10499855;28;20406;-64
2020/12/31 09:55:37;;;;;;;17.10;15.60;;;;;;;1.94;66.18;99220.03;10499607;28;20450;-65
2020/12/31 10:00:38;;;;;;;17.85;16.55;;;;;;;2.11;65.93;99219.88;10500585;28;20466;-66
2020/12/31 10:05:39;;;;;;;18.75;16.95;;;;;;;2.36;65.66;99214.44;10498906;28;20044;-66
2020/12/31 10:10:40;;;;;;;18.95;17.38;;;;;;;2.37;65.42;99213.53;10498745;28;20115;-66
2020/12/31 10:15:42;;;;;;;20.48;18.40;;;;;;;2.45;65.54;99198.75;10500075;28;20040;-66
2020/12/31 10:20:43;;;;;;;18.63;16.88;;;;;;;2.45;65.29;99198.75;10500782;28;20482;-65
2020/12/31 10:25:47;;;;;;;18.13;16.42;;;;;;;2.90;64.04;99192.09;10500734;28;20043;-65
2020/12/31 10:30:49;;;;;;;17.48;16.08;;;;;;;2.72;64.35;99189.75;10499914;28;20045;-66
2020/12/31 10:35:50;;;;;;;15.23;13.93;;;;;;;2.84;63.65;99176.63;10499933;28;20131;-66
2020/12/31 10:40:51;;;;;;;19.08;17.35;;;;;;;2.81;64.67;99166.25;10500307;28;20439;-66
2020/12/31 10:45:52;;;;;;;16.63;15.25;;;;;;;2.84;64.19;99163.63;10500478;28;20075;-66
2020/12/31 10:51:00;;;;;;;13.25;12.05;;;;;;;3.32;62.27;99161.16;10499490;28;20122;-66
2020/12/31 10:56:01;;;;;;;11.50;10.57;;;;;;;3.34;61.53;99154.19;10498308;28;20072;-66
2020/12/31 11:01:03;;;;;;;12.82;11.73;;;;;;;3.43;61.91;99137.59;10498109;28;20420;-68
2020/12/31 11:06:04;;;;;;;12.35;11.35;;;;;;;3.48;62.00;99128.84;10497257;28;20040;-69
2020/12/31 11:11:05;;;;;;;12.65;11.52;;;;;;;3.72;60.44;99118.91;10499011;28;20067;-69
2020/12/31 11:16:10;;;;;;;2.65;2.45;;;;;;;4.98;53.93;99112.72;10496877;28;20041;-69
2020/12/31 11:21:15;;;;;;;2.13;1.90;;;;;;;8.03;46.87;99106.22;10503206;28;20052;-69
2020/12/31 11:26:18;;;;;;;1.67;1.45;;;;;;;10.66;42.50;99091.84;10519705;28;20119;-69
2020/12/31 11:31:25;;;;;;;1.90;1.80;;;;;;;10.91;39.89;99081.00;10504594;28;20048;-68
2020/12/31 11:36:28;;;;;;;1.92;1.73;;;;;;;11.13;39.66;99076.41;10504497;28;20036;-68
2020/12/31 11:41:29;;;;;;;1.73;1.23;;;;;;;10.21;40.89;99079.88;10504254;28;20059;-68
2020/12/31 11:46:30;;;;;;;4.68;1.83;;;;;;;10.72;40.48;99073.16;10502002;28;20045;-68
2020/12/31 11:51:33;;;;;;;1.50;1.40;;;;;;;9.31;42.00;99077.66;10503807;28;20072;-68
2020/12/31 11:56:34;;;;;;;2.85;1.98;;;;;;;9.24;43.65;99075.34;10503056;28;20037;-70
2020/12/31 12:01:35;;;;;;;2.38;2.17;;;;;;;8.68;43.45;99073.28;10502497;28;20131;-69
2020/12/31 12:06:37;;;;;;;2.20;1.95;;;;;;;7.56;46.55;99069.50;10502348;28;20124;-68
2020/12/31 12:11:38;;;;;;;3.10;2.10;;;;;;;6.99;47.49;99068.81;10502845;28;20118;-68
2020/12/31 12:16:40;;;;;;;1.80;1.70;;;;;;;6.91;47.41;99072.59;10502136;28;20045;-68
2020/12/31 12:21:41;;;;;;;2.30;2.10;;;;;;;7.24;46.26;99073.22;10502006;28;20041;-69
2020/12/31 12:26:43;;;;;;;2.90;2.30;;;;;;;6.92;47.12;99064.69;10505208;28;20049;-69
2020/12/31 12:31:44;;;;;;;3.33;3.03;;;;;;;7.02;46.97;99063.50;10505392;28;20072;-69
2020/12/31 12:36:52;;;;;;;3.25;2.30;;;;;;;6.11;49.38;99063.72;10505281;28;20056;-69
2020/12/31 12:41:58;;;;;;;3.15;2.85;;;;;;;5.47;51.29;99061.13;10502458;28;20046;-68
2020/12/31 12:46:59;;;;;;;2.67;2.47;;;;;;;5.06;51.78;99057.84;10501872;28;20119;-69
2020/12/31 12:52:04;;;;;;;3.28;2.97;;;;;;;4.99;53.38;99062.34;10517859;28;20470;-69
2020/12/31 12:57:05;;;;;;;3.10;2.72;;;;;;;5.16;51.34;99061.06;10499043;28;20472;-68
2020/12/31 13:02:06;;;;;;;2.85;2.60;;;;;;;4.90;52.54;99062.56;10498776;28;20041;-69
2020/12/31 13:07:08;;;;;;;2.88;2.65;;;;;;;4.78;53.42;99066.34;10499752;28;20111;-68
2020/12/31 13:12:09;;;;;;;3.03;2.78;;;;;;;5.03;52.03;99056.16;10499750;28;20048;-69
2020/12/31 13:17:10;;;;;;;3.20;2.90;;;;;;;4.78;53.22;99063.75;10500365;28;20048;-68
2020/12/31 13:22:11;;;;;;;4.00;3.60;;;;;;;4.60;53.45;99065.88;10499778;28;20127;-68
2020/12/31 13:27:13;;;;;;;3.95;3.55;;;;;;;4.57;53.82;99068.59;10499532;28;20118;-68
2020/12/31 13:32:14;;;;;;;5.13;4.63;;;;;;;4.05;55.07;99067.97;10499490;28;20188;-68
2020/12/31 13:37:17;;;;;;;4.05;3.65;;;;;;;4.22;54.97;99067.63;10499064;28;20120;-68
2020/12/31 13:42:18;;;;;;;4.10;3.70;;;;;;;4.28;54.91;99064.88;10498275;28;20048;-69
2020/12/31 13:47:19;;;;;;;4.28;3.92;;;;;;;4.11;55.30;99059.16;10499220;28;20604;-68
2020/12/31 13:52:20;;;;;;;4.60;4.20;;;;;;;4.00;55.38;99064.59;10499475;28;20142;-67
2020/12/31 13:57:22;;;;;;;5.15;4.65;;;;;;;3.73;56.46;99079.03;10500141;28;20102;-67
2020/12/31 14:02:23;;;;;;;7.82;4.60;;;;;;;3.83;56.05;99069.28;10499175;28;20498;-68
2020/12/31 14:07:24;;;;;;;4.53;4.13;;;;;;;3.72;56.09;99070.38;10513547;22;20051;-62
2020/12/31 14:12:25;;;;;;;5.30;4.90;;;;;;;3.66;56.23;99074.81;10497887;28;20067;-63
2020/12/31 14:17:27;;;;;;;5.65;5.13;;;;;;;3.73;55.94;99074.69;10497836;28;20157;-62
2020/12/31 14:22:28;;;;;;;6.10;5.60;;;;;;;3.65;56.24;99067.91;10498641;28;20450;-63
2020/12/31 14:27:29;;;;;;;6.35;5.75;;;;;;;3.50;56.79;99072.50;10497440;28;20047;-64
2020/12/31 14:32:30;;;;;;;6.45;5.85;;;;;;;3.53;56.83;99066.38;10497432;28;20582;-63
2020/12/31 14:37:31;;;;;;;6.72;6.07;;;;;;;3.43;57.09;99062.25;10497524;28;20051;-63
2020/12/31 14:42:33;;;;;;;6.88;6.35;;;;;;;3.48;57.16;99068.22;10498020;28;20401;-64
2020/12/31 14:47:35;;;;;;;7.63;7.07;;;;;;;3.22;57.71;99076.47;10497396;28;20097;-63
2020/12/31 14:52:36;;;;;;;6.93;6.32;;;;;;;3.15;57.67;99077.50;10502227;28;20040;-63
2020/12/31 14:57:37;;;;;;;8.07;7.47;;;;;;;3.04;58.12;99083.69;10506252;28;20064;-63
2020/12/31 15:02:39;;;;;;;12.20;8.15;;;;;;;2.87;58.85;99082.25;10504825;28;20159;-63
2020/12/31 15:07:40;;;;;;;9.27;8.57;;;;;;;2.50;59.82;99081.09;10502918;28;20040;-62
2020/12/31 15:12:42;;;;;;;11.27;10.13;;;;;;;2.38;60.51;99083.84;10505217;28;20076;-62
2020/12/31 15:17:43;;;;;;;10.35;9.55;;;;;;;2.56;60.10;99089.66;10504579;28;20036;-63
2020/12/31 15:22:44;;;;;;;11.05;10.05;;;;;;;2.50;60.29;99086.28;10503488;28;20052;-63
2020/12/31 15:27:45;;;;;;;10.35;9.55;;;;;;;2.41;60.61;99088.13;10504146;28;20068;-63
2020/12/31 15:32:46;;;;;;;11.73;10.82;;;;;;;2.43;60.55;99088.97;10503710;28;20098;-62
2020/12/31 15:37:47;;;;;;;12.43;11.43;;;;;;;2.40;60.53;99091.63;10503293;28;20112;-63
2020/12/31 15:42:49;;;;;;;13.20;11.95;;;;;;;2.12;61.52;99091.09;10505077;28;20442;-63
2020/12/31 15:47:50;;;;;;;14.23;12.60;;;;;;;2.02;62.01;99080.84;10502836;28;20055;-63
2020/12/31 15:52:51;;;;;;;15.85;14.52;;;;;;;2.08;61.53;99082.53;10502069;28;20063;-63
2020/12/31 15:57:53;;;;;;;14.82;13.63;;;;;;;1.44;62.92;99081.53;10503312;28;20397;-64
2020/12/31 16:02:54;;;;;;;15.48;14.18;;;;;;;1.50;62.79;99076.28;10500226;28;20051;-65
2020/12/31 16:07:55;;;;;;;15.90;14.40;;;;;;;1.64;62.61;99080.44;10502391;28;20041;-65
2020/12/31 16:12:56;;;;;;;16.77;15.35;;;;;;;1.82;62.02;99072.50;10502022;28;20044;-63
2020/12/31 16:17:57;;;;;;;19.30;17.60;;;;;;;1.36;63.05;99072.97;10501979;28;20044;-63
2020/12/31 16:23:01;;;;;;;17.25;15.85;;;;;;;1.59;62.84;99071.88;10502146;28;20045;-64
2020/12/31 16:28:02;;;;;;;17.60;15.93;;;;;;;1.56;62.80;99069.34;10501150;28;20063;-63
2020/12/31 16:33:06;;;;;;;17.13;15.50;;;;;;;1.67;62.46;99070.91;10501100;28;20041;-65
2020/12/31 16:38:12;;;;;;;16.75;15.25;;;;;;;1.64;62.37;99067.50;10499178;28;20044;-64
2020/12/31 16:43:14;;;;;;;17.92;16.42;;;;;;;1.59;62.93;99064.09;10499357;28;20076;-65
2020/12/31 16:48:15;;;;;;;17.98;16.38;;;;;;;1.45;63.22;99078.06;10500805;28;20068;-65
2020/12/31 16:53:16;;;;;;;18.00;16.52;;;;;;;1.49;63.37;99077.16;10500199;28;20486;-63
2020/12/31 16:58:17;;;;;;;20.65;18.60;;;;;;;1.44;63.34;99084.13;10498648;28;20048;-64
2020/12/31 17:03:19;;;;;;;18.70;17.10;;;;;;;1.40;63.48;99084.16;10499774;28;20554;-63
2020/12/31 17:08:20;;;;;;;22.25;19.85;;;;;;;1.26;63.85;99085.16;10499029;28;20051;-65
2020/12/31 17:13:23;;;;;;;24.42;21.52;;;;;;;1.07;64.46;99075.00;10499647;28;20040;-64
2020/12/31 17:18:25;;;;;;;24.10;19.88;;;;;;;1.03;64.80;99070.72;10500255;28;20452;-64
2020/12/31 17:23:26;;;;;;;25.13;22.52;;;;;;;0.88;65.74;99067.38;10498982;28;20055;-64
2020/12/31 17:28:27;;;;;;;27.80;24.88;;;;;;;1.00;65.53;99062.09;10498237;28;20124;-64
2020/12/31 17:33:29;;;;;;;32.70;25.35;;;;;;;0.93;65.75;99068.22;10498589;28;20409;-64
2020/12/31 17:38:31;;;;;;;43.35;27.95;;;;;;;0.85;65.98;99056.22;10498746;28;20468;-64
2020/12/31 17:43:32;;;;;;;52.08;30.77;;;;;;;0.76;65.83;99064.91;10499787;28;20131;-64
2020/12/31 17:48:36;;;;;;;52.15;33.60;;;;;;;0.65;66.43;99069.28;10498892;28;20057;-64
2020/12/31 17:53:37;;;;;;;46.95;29.17;;;;;;;0.53;67.20;99071.94;10497856;28;20045;-63
2020/12/31 17:58:39;;;;;;;35.70;28.30;;;;;;;0.37;67.19;99066.88;10497439;28;20044;-64
2020/12/31 18:03:41;;;;;;;51.53;31.15;;;;;;;0.37;67.21;99060.88;10498076;28;20040;-64
2020/12/31 18:08:42;;;;;;;44.00;31.05;;;;;;;0.28;67.78;99055.75;10498927;28;20430;-65
2020/12/31 18:13:43;;;;;;;53.70;33.80;;;;;;;0.12;68.26;99060.13;10497444;28;20068;-64
2020/12/31 18:18:45;;;;;;;80.00;46.28;;;;;;;0.16;68.40;99054.94;10498711;28;20049;-64
2020/12/31 18:23:59;;;;;;;74.30;41.97;;;;;;;-0.08;68.76;99055.09;10497578;28;20395;-64
2020/12/31 18:29:01;;;;;;;76.72;44.25;;;;;;;-0.13;69.10;99060.28;10503493;28;20048;-64
2020/12/31 18:34:02;;;;;;;95.03;52.08;;;;;;;-0.26;69.24;99059.47;10505617;28;20064;-63
2020/12/31 18:39:04;;;;;;;79.10;44.10;;;;;;;-0.18;69.49;99053.38;10504883;28;20111;-64
2020/12/31 18:44:06;;;;;;;72.10;42.10;;;;;;;-0.36;69.21;99056.91;10504236;28;20454;-63
2020/12/31 18:49:08;;;;;;;65.63;38.30;;;;;;;-0.28;69.50;99052.56;10505293;28;20044;-66
2020/12/31 18:54:10;;;;;;;74.13;42.20;;;;;;;-0.46;69.86;99055.22;10505619;28;20087;-66
2020/12/31 18:59:11;;;;;;;88.70;50.95;;;;;;;-0.17;69.74;99049.97;10505008;28;20044;-64
2020/12/31 19:04:13;;;;;;;77.05;46.28;;;;;;;-0.06;69.13;99049.03;10504404;28;20040;-66
2020/12/31 19:09:14;;;;;;;84.47;48.45;;;;;;;-0.29;70.44;99053.44;10504109;28;20040;-64
2020/12/31 19:14:15;;;;;;;66.18;39.88;;;;;;;-0.19;70.04;99049.94;10504410;28;20119;-64
2020/12/31 19:19:33;;;;;;;71.38;40.55;;;;;;;-0.12;70.02;99048.22;10504328;28;20082;-66
2020/12/31 19:24:34;;;;;;;71.80;40.30;;;;;;;-0.36;70.38;99052.59;10503562;28;20036;-65
2020/12/31 19:29:35;;;;;;;71.65;39.70;;;;;;;-0.43;70.59;99050.91;10504279;28;20052;-65
2020/12/31 19:34:36;;;;;;;68.38;42.47;;;;;;;-0.42;70.82;99049.19;10503390;28;20064;-65
2020/12/31 19:39:38;;;;;;;76.60;46.30;;;;;;;-0.16;71.60;99051.69;10502097;28;20036;-64
2020/12/31 19:44:39;;;;;;;72.95;44.58;;;;;;;0.00;70.58;99053.31;10502449;28;20119;-65
2020/12/31 19:49:43;;;;;;;96.70;52.92;;;;;;;-0.03;70.49;99043.84;10502159;28;20044;-65
2020/12/31 19:54:46;;;;;;;205.10;94.95;;;;;;;-0.31;70.41;99056.03;10503193;28;20398;-64
2020/12/31 19:59:47;;;;;;;146.40;86.53;;;;;;;-0.15;71.03;99051.66;10501907;28;20072;-65
2020/12/31 20:04:49;;;;;;;131.85;79.53;;;;;;;-0.07;70.01;99049.03;10516917;22;20072;-65
2020/12/31 20:09:50;;;;;;;148.43;86.50;;;;;;;0.11;70.77;99048.94;10508757;28;20048;-67
2020/12/31 20:14:52;;;;;;;90.03;53.20;;;;;;;-0.01;70.83;99055.03;10492339;28;20040;-67
2020/12/31 20:19:53;;;;;;;98.88;55.70;;;;;;;0.18;71.02;99058.41;10492611;28;20052;-67
2020/12/31 20:24:55;;;;;;;74.90;44.50;;;;;;;0.27;70.48;99065.25;10496161;28;20387;-66
2020/12/31 20:29:56;;;;;;;73.07;41.83;;;;;;;0.44;70.24;99067.69;10491381;28;20036;-67
2020/12/31 20:34:57;;;;;;;104.35;60.80;;;;;;;0.42;70.14;99065.13;10510869;28;20082;-66
2020/12/31 20:39:59;;;;;;;76.90;44.47;;;;;;;0.56;69.80;99069.34;10496100;28;20045;-66
2020/12/31 20:45:03;;;;;;;78.47;42.03;;;;;;;0.67;69.55;99071.00;10509558;28;20037;-67
2020/12/31 20:50:05;;;;;;;64.28;38.38;;;;;;;0.57;69.65;99065.88;10509079;28;20064;-65
2020/12/31 20:55:07;;;;;;;53.65;34.92;;;;;;;0.82;69.36;99059.66;10507744;28;20128;-67
2020/12/31 21:00:10;;;;;;;59.35;36.92;;;;;;;0.70;69.41;99072.69;10506472;28;20044;-65
2020/12/31 21:05:11;;;;;;;51.35;33.20;;;;;;;0.81;69.32;99075.22;10504778;28;20032;-66
2020/12/31 21:10:13;;;;;;;51.95;34.30;;;;;;;0.74;69.57;99077.81;10505313;28;20043;-66
2020/12/31 21:15:17;;;;;;;47.35;32.10;;;;;;;0.95;69.25;99065.59;10485376;28;20119;-66
2020/12/31 21:20:18;;;;;;;58.60;35.75;;;;;;;1.03;68.70;99068.97;10485114;28;20124;-65
2020/12/31 21:25:22;;;;;;;60.22;37.58;;;;;;;1.00;68.75;99071.59;10504308;28;20470;-67
2020/12/31 21:30:24;;;;;;;68.45;40.33;;;;;;;1.08;68.65;99064.63;10500910;28;20079;-66
2020/12/31 21:35:25;;;;;;;60.08;37.78;;;;;;;0.99;68.56;99069.88;10501530;28;20048;-66
2020/12/31 21:40:26;;;;;;;57.40;37.10;;;;;;;0.90;68.67;99073.41;10485335;28;20044;-66
2020/12/31 21:45:27;;;;;;;53.28;34.65;;;;;;;0.85;68.91;99070.00;10483917;28;20048;-66
2020/12/31 21:50:29;;;;;;;53.60;35.47;;;;;;;0.69;69.47;99069.25;10501807;28;20060;-66
2020/12/31 21:55:30;;;;;;;50.92;33.60;;;;;;;0.69;69.26;99064.06;10485575;28;20045;-65
2020/12/31 22:00:31;;;;;;;44.60;32.03;;;;;;;0.71;69.54;99057.19;10502006;28;20064;-66
2020/12/31 22:05:33;;;;;;;46.45;32.75;;;;;;;0.79;69.36;99064.00;10484789;28;20050;-66
2020/12/31 22:10:35;;;;;;;47.83;32.25;;;;;;;0.87;69.15;99055.31;10502725;28;20131;-66
2020/12/31 22:15:36;;;;;;;48.53;31.85;;;;;;;0.84;68.90;99049.28;10503346;28;20076;-67
2020/12/31 22:20:38;;;;;;;49.45;33.10;;;;;;;0.80;69.04;99047.59;10503313;28;20045;-68
2020/12/31 22:25:39;;;;;;;67.43;41.30;;;;;;;0.83;68.85;99040.69;10502419;28;20055;-68
2020/12/31 22:30:41;;;;;;;70.45;43.58;;;;;;;0.68;69.24;99046.84;10501366;28;20072;-66
2020/12/31 22:35:46;;;;;;;53.15;35.30;;;;;;;0.66;69.32;99042.53;10484757;28;20068;-67
2020/12/31 22:40:47;;;;;;;48.88;32.85;;;;;;;0.81;68.89;99032.09;10500060;28;20072;-66
2020/12/31 22:45:48;;;;;;;49.90;34.00;;;;;;;0.83;69.19;99039.81;10499979;28;20105;-66
2020/12/31 22:50:51;;;;;;;50.83;34.42;;;;;;;0.79;69.12;99032.97;10499926;28;20387;-66
2020/12/31 22:55:52;;;;;;;55.25;34.90;;;;;;;0.80;68.83;99037.25;10501996;28;20111;-66
2020/12/31 23:00:54;;;;;;;44.83;32.75;;;;;;;0.95;68.84;99037.13;10483456;28;20108;-65
2020/12/31 23:05:55;;;;;;;61.65;35.50;;;;;;;0.98;68.50;99030.22;10499675;28;20048;-66
2020/12/31 23:10:57;;;;;;;82.63;49.60;;;;;;;0.83;68.89;99030.34;10498686;28;20051;-66
2020/12/31 23:15:58;;;;;;;116.88;68.80;;;;;;;0.86;69.31;99030.31;10507238;28;20083;-66
2020/12/31 23:20:59;;;;;;;141.45;81.40;;;;;;;0.62;69.99;99038.25;10508883;28;20068;-66